Grizzly Air Cargo 5092


PHNL
Daniel K Inouye International Airport
Honolulu, Hawaii, US
PANC
Ted Stevens Anchorage International Airport
Anchorage, Alaska, US

Activity Log

Date Flight Route Aircraft Duration
09/08/2020 GRZ5092 MKK4 APACK 3000N/15600W 3500N/15600W 4000N/15600W 4500N/15500W 5000N/15400W 5500N/15300W ODK BAITT NEELL6 B763 5h 50m

Route Details

Aircraft Information
Primary: Boeing 767-300BDSF
Backup: Not Available
Route Data
Distance: 2413nm
Sched. Duration: 5h 25m
Avg. Duration: 5h 50m (+26m)
Times Flown: 1
Recm'd Route: MKK4 APACK 3000N/15600W 3500N/15600W 4000N/15600W 4500N/15500W 5000N/15400W 5500N/15300W ODK BAITT NEELL6
Planned Altitude: 39,000ft
Origin Wx: PHNL 220853Z 35004KT 10SM FEW030 BKN045 BKN060 24/22 A2995 RMK AO2 SLP140 60001 T02440222 51002 $
Dest. Wx: PANC 220853Z 00000KT 10SM CLR M02/M06 A3047 RMK AO2 SLP320 T10221061 400391050 56007
Notes: OPERATED FOR GRIZZLY AIR CARGO

Financial History
Total Freight: 70,510lbs
Average Load: 70,510lbs/flt
Fuel Used: 59,091lbs
Avg. Fuel Used: 59,091lbs/flt
Fuel Expense: $40,773
Avg. Fuel Expense: $40,773
Avg. Fuel Cost: $0.69/lbs
Total Gross Income: $117,047
Pilot Pay: $259
Total Expenses: $12,693
Total Revenue: $62,154
Average Revenue: $117,046.60